sensor_id;sensor_type;location;lat;lon;timestamp;temperature;humidity
4643;DHT22;2334;48.710;9.622;2023-05-07T00:00:43;14.00;99.90
4643;DHT22;2334;48.710;9.622;2023-05-07T00:03:10;14.00;99.90
4643;DHT22;2334;48.710;9.622;2023-05-07T00:05:39;14.00;99.90
4643;DHT22;2334;48.710;9.622;2023-05-07T00:08:07;14.00;99.90
4643;DHT22;2334;48.710;9.622;2023-05-07T00:10:33;13.90;99.90
4643;DHT22;2334;48.710;9.622;2023-05-07T00:13:00;13.90;99.90
4643;DHT22;2334;48.710;9.622;2023-05-07T00:15:27;13.90;99.90
4643;DHT22;2334;48.710;9.622;2023-05-07T00:17:55;13.80;99.90
4643;DHT22;2334;48.710;9.622;2023-05-07T00:20:23;13.70;99.90
4643;DHT22;2334;48.710;9.622;2023-05-07T00:22:50;13.60;99.90
4643;DHT22;2334;48.710;9.622;2023-05-07T00:25:16;13.60;99.90
4643;DHT22;2334;48.710;9.622;2023-05-07T00:27:45;13.60;99.90
4643;DHT22;2334;48.710;9.622;2023-05-07T00:30:12;13.60;99.90
4643;DHT22;2334;48.710;9.622;2023-05-07T00:32:39;13.60;99.90
4643;DHT22;2334;48.710;9.622;2023-05-07T00:35:08;13.60;99.90
4643;DHT22;2334;48.710;9.622;2023-05-07T00:37:35;13.60;99.90
4643;DHT22;2334;48.710;9.622;2023-05-07T00:40:03;13.60;99.90
4643;DHT22;2334;48.710;9.622;2023-05-07T00:42:32;13.50;99.90
4643;DHT22;2334;48.710;9.622;2023-05-07T00:44:59;13.50;99.90
4643;DHT22;2334;48.710;9.622;2023-05-07T00:47:26;13.50;99.90
4643;DHT22;2334;48.710;9.622;2023-05-07T00:49:53;13.50;99.90
4643;DHT22;2334;48.710;9.622;2023-05-07T00:52:21;13.50;99.90
4643;DHT22;2334;48.710;9.622;2023-05-07T00:54:53;13.50;99.90
4643;DHT22;2334;48.710;9.622;2023-05-07T00:57:21;13.50;99.90
4643;DHT22;2334;48.710;9.622;2023-05-07T00:59:49;13.50;99.90
4643;DHT22;2334;48.710;9.622;2023-05-07T01:02:17;13.50;99.90
4643;DHT22;2334;48.710;9.622;2023-05-07T01:04:44;13.50;99.90
4643;DHT22;2334;48.710;9.622;2023-05-07T01:07:11;13.50;99.90
4643;DHT22;2334;48.710;9.622;2023-05-07T01:09:39;13.40;99.90
4643;DHT22;2334;48.710;9.622;2023-05-07T01:12:07;13.40;99.90
4643;DHT22;2334;48.710;9.622;2023-05-07T01:14:35;13.30;99.90
4643;DHT22;2334;48.710;9.622;2023-05-07T01:17:05;13.30;99.90
4643;DHT22;2334;48.710;9.622;2023-05-07T01:19:32;13.30;99.90
4643;DHT22;2334;48.710;9.622;2023-05-07T01:22:02;13.30;99.90
4643;DHT22;2334;48.710;9.622;2023-05-07T01:24:32;13.30;99.90
4643;DHT22;2334;48.710;9.622;2023-05-07T01:26:59;13.20;99.90
4643;DHT22;2334;48.710;9.622;2023-05-07T01:29:27;13.20;99.90
4643;DHT22;2334;48.710;9.622;2023-05-07T01:31:55;13.20;99.90
4643;DHT22;2334;48.710;9.622;2023-05-07T01:34:22;13.20;99.90
4643;DHT22;2334;48.710;9.622;2023-05-07T01:36:52;13.20;99.90
4643;DHT22;2334;48.710;9.622;2023-05-07T01:39:21;13.20;99.90
4643;DHT22;2334;48.710;9.622;2023-05-07T01:41:50;13.20;99.90
4643;DHT22;2334;48.710;9.622;2023-05-07T01:44:18;13.20;99.90
4643;DHT22;2334;48.710;9.622;2023-05-07T01:46:46;13.20;99.90
4643;DHT22;2334;48.710;9.622;2023-05-07T01:49:14;13.20;99.90
4643;DHT22;2334;48.710;9.622;2023-05-07T01:51:41;13.10;99.90
4643;DHT22;2334;48.710;9.622;2023-05-07T01:54:09;13.10;99.90
4643;DHT22;2334;48.710;9.622;2023-05-07T01:56:36;13.10;99.90
4643;DHT22;2334;48.710;9.622;2023-05-07T01:59:04;13.10;99.90
4643;DHT22;2334;48.710;9.622;2023-05-07T02:01:31;13.00;99.90
4643;DHT22;2334;48.710;9.622;2023-05-07T02:03:58;13.00;99.90
4643;DHT22;2334;48.710;9.622;2023-05-07T02:06:25;13.00;99.90
4643;DHT22;2334;48.710;9.622;2023-05-07T02:08:52;13.00;99.90
4643;DHT22;2334;48.710;9.622;2023-05-07T02:11:19;12.90;99.90
4643;DHT22;2334;48.710;9.622;2023-05-07T02:13:45;12.90;99.90
4643;DHT22;2334;48.710;9.622;2023-05-07T02:16:15;12.90;99.90
4643;DHT22;2334;48.710;9.622;2023-05-07T02:18:42;12.90;99.90
4643;DHT22;2334;48.710;9.622;2023-05-07T02:21:08;12.90;99.90
4643;DHT22;2334;48.710;9.622;2023-05-07T02:23:35;12.90;99.90
4643;DHT22;2334;48.710;9.622;2023-05-07T02:26:04;12.90;99.90
4643;DHT22;2334;48.710;9.622;2023-05-07T02:28:31;12.80;99.90
4643;DHT22;2334;48.710;9.622;2023-05-07T02:31:02;12.80;99.90
4643;DHT22;2334;48.710;9.622;2023-05-07T02:33:30;12.80;99.90
4643;DHT22;2334;48.710;9.622;2023-05-07T02:36:05;12.70;99.90
4643;DHT22;2334;48.710;9.622;2023-05-07T02:38:32;12.70;99.90
4643;DHT22;2334;48.710;9.622;2023-05-07T02:40:59;12.70;99.90
4643;DHT22;2334;48.710;9.622;2023-05-07T02:43:26;12.70;99.90
4643;DHT22;2334;48.710;9.622;2023-05-07T02:46:00;12.70;99.90
4643;DHT22;2334;48.710;9.622;2023-05-07T02:48:29;12.70;99.90
4643;DHT22;2334;48.710;9.622;2023-05-07T02:50:56;12.70;99.90
4643;DHT22;2334;48.710;9.622;2023-05-07T02:53:23;12.60;99.90
4643;DHT22;2334;48.710;9.622;2023-05-07T02:55:51;12.60;99.90
4643;DHT22;2334;48.710;9.622;2023-05-07T02:58:19;12.60;99.90
4643;DHT22;2334;48.710;9.622;2023-05-07T03:00:46;12.50;99.90
4643;DHT22;2334;48.710;9.622;2023-05-07T03:03:13;12.50;99.90
4643;DHT22;2334;48.710;9.622;2023-05-07T03:05:41;12.50;99.90
4643;DHT22;2334;48.710;9.622;2023-05-07T03:08:09;12.50;99.90
4643;DHT22;2334;48.710;9.622;2023-05-07T03:10:36;12.50;99.90
4643;DHT22;2334;48.710;9.622;2023-05-07T03:13:03;12.50;99.90
4643;DHT22;2334;48.710;9.622;2023-05-07T03:15:30;12.50;99.90
4643;DHT22;2334;48.710;9.622;2023-05-07T03:17:57;12.50;99.90
4643;DHT22;2334;48.710;9.622;2023-05-07T03:20:24;12.40;99.90
4643;DHT22;2334;48.710;9.622;2023-05-07T03:22:52;12.40;99.90
4643;DHT22;2334;48.710;9.622;2023-05-07T03:25:19;12.40;99.90
4643;DHT22;2334;48.710;9.622;2023-05-07T03:27:46;12.40;99.90
4643;DHT22;2334;48.710;9.622;2023-05-07T03:30:12;12.40;99.90
4643;DHT22;2334;48.710;9.622;2023-05-07T03:32:40;12.40;99.90
4643;DHT22;2334;48.710;9.622;2023-05-07T03:35:07;12.40;99.90
4643;DHT22;2334;48.710;9.622;2023-05-07T03:37:34;12.30;99.90
4643;DHT22;2334;48.710;9.622;2023-05-07T03:40:02;12.30;99.90
4643;DHT22;2334;48.710;9.622;2023-05-07T03:42:29;12.20;99.90
4643;DHT22;2334;48.710;9.622;2023-05-07T03:44:56;12.20;99.90
4643;DHT22;2334;48.710;9.622;2023-05-07T03:47:23;12.20;99.90
4643;DHT22;2334;48.710;9.622;2023-05-07T03:49:50;12.10;99.90
4643;DHT22;2334;48.710;9.622;2023-05-07T03:52:18;12.10;99.90
4643;DHT22;2334;48.710;9.622;2023-05-07T03:54:49;12.10;99.90
4643;DHT22;2334;48.710;9.622;2023-05-07T03:57:17;12.00;99.90
4643;DHT22;2334;48.710;9.622;2023-05-07T03:59:44;12.00;99.90
4643;DHT22;2334;48.710;9.622;2023-05-07T04:02:11;12.00;99.90
4643;DHT22;2334;48.710;9.622;2023-05-07T04:04:38;11.90;99.90
4643;DHT22;2334;48.710;9.622;2023-05-07T04:07:04;11.90;99.90
4643;DHT22;2334;48.710;9.622;2023-05-07T04:09:32;11.80;99.90
4643;DHT22;2334;48.710;9.622;2023-05-07T04:11:59;11.80;99.90
4643;DHT22;2334;48.710;9.622;2023-05-07T04:14:28;11.80;99.90
4643;DHT22;2334;48.710;9.622;2023-05-07T04:16:55;11.80;99.90
4643;DHT22;2334;48.710;9.622;2023-05-07T04:19:22;11.80;99.90
4643;DHT22;2334;48.710;9.622;2023-05-07T04:21:49;11.80;99.90
4643;DHT22;2334;48.710;9.622;2023-05-07T04:24:16;11.80;99.90
4643;DHT22;2334;48.710;9.622;2023-05-07T04:26:43;11.80;99.90
4643;DHT22;2334;48.710;9.622;2023-05-07T04:29:10;11.80;99.90
4643;DHT22;2334;48.710;9.622;2023-05-07T04:31:38;11.90;99.90
4643;DHT22;2334;48.710;9.622;2023-05-07T04:34:05;11.90;99.90
4643;DHT22;2334;48.710;9.622;2023-05-07T04:36:32;11.80;99.90
4643;DHT22;2334;48.710;9.622;2023-05-07T04:38:59;11.80;99.90
4643;DHT22;2334;48.710;9.622;2023-05-07T04:41:26;11.80;99.90
4643;DHT22;2334;48.710;9.622;2023-05-07T04:43:53;11.90;99.90
4643;DHT22;2334;48.710;9.622;2023-05-07T04:46:21;11.90;99.90
4643;DHT22;2334;48.710;9.622;2023-05-07T04:48:49;11.90;99.90
4643;DHT22;2334;48.710;9.622;2023-05-07T04:51:16;11.90;99.90
4643;DHT22;2334;48.710;9.622;2023-05-07T04:53:43;12.00;99.90
4643;DHT22;2334;48.710;9.622;2023-05-07T04:56:10;12.00;99.90
4643;DHT22;2334;48.710;9.622;2023-05-07T04:58:37;12.00;99.90
4643;DHT22;2334;48.710;9.622;2023-05-07T05:01:04;12.00;99.90
4643;DHT22;2334;48.710;9.622;2023-05-07T05:03:31;12.00;99.90
4643;DHT22;2334;48.710;9.622;2023-05-07T05:05:59;12.00;99.90
4643;DHT22;2334;48.710;9.622;2023-05-07T05:08:26;12.00;99.90
4643;DHT22;2334;48.710;9.622;2023-05-07T05:10:53;12.00;99.90
4643;DHT22;2334;48.710;9.622;2023-05-07T05:13:20;12.10;99.90
4643;DHT22;2334;48.710;9.622;2023-05-07T05:15:47;12.10;99.90
4643;DHT22;2334;48.710;9.622;2023-05-07T05:18:13;12.20;99.90
4643;DHT22;2334;48.710;9.622;2023-05-07T05:20:40;12.20;99.90
4643;DHT22;2334;48.710;9.622;2023-05-07T05:23:09;12.30;99.90
4643;DHT22;2334;48.710;9.622;2023-05-07T05:25:35;12.30;99.90
4643;DHT22;2334;48.710;9.622;2023-05-07T05:28:03;12.30;99.90
4643;DHT22;2334;48.710;9.622;2023-05-07T05:30:29;12.30;99.90
4643;DHT22;2334;48.710;9.622;2023-05-07T05:32:56;12.30;99.90
4643;DHT22;2334;48.710;9.622;2023-05-07T05:35:23;12.30;99.90
4643;DHT22;2334;48.710;9.622;2023-05-07T05:37:50;12.40;99.90
4643;DHT22;2334;48.710;9.622;2023-05-07T05:40:18;12.40;99.90
4643;DHT22;2334;48.710;9.622;2023-05-07T05:42:45;12.60;99.90
4643;DHT22;2334;48.710;9.622;2023-05-07T05:45:12;12.60;99.90
4643;DHT22;2334;48.710;9.622;2023-05-07T05:47:39;12.70;99.90
4643;DHT22;2334;48.710;9.622;2023-05-07T05:50:07;12.90;99.90
4643;DHT22;2334;48.710;9.622;2023-05-07T05:52:34;13.00;99.90
4643;DHT22;2334;48.710;9.622;2023-05-07T05:55:01;13.10;99.90
4643;DHT22;2334;48.710;9.622;2023-05-07T05:57:29;13.30;99.90
4643;DHT22;2334;48.710;9.622;2023-05-07T05:59:57;13.40;99.90
4643;DHT22;2334;48.710;9.622;2023-05-07T06:02:23;13.60;99.90
4643;DHT22;2334;48.710;9.622;2023-05-07T06:04:50;13.80;99.90
4643;DHT22;2334;48.710;9.622;2023-05-07T06:07:17;14.00;99.90
4643;DHT22;2334;48.710;9.622;2023-05-07T06:09:44;14.10;99.90
4643;DHT22;2334;48.710;9.622;2023-05-07T06:12:11;14.30;99.90
4643;DHT22;2334;48.710;9.622;2023-05-07T06:14:39;14.40;99.90
4643;DHT22;2334;48.710;9.622;2023-05-07T06:17:07;14.60;99.90
4643;DHT22;2334;48.710;9.622;2023-05-07T06:19:33;14.90;99.90
4643;DHT22;2334;48.710;9.622;2023-05-07T06:22:01;15.10;99.90
4643;DHT22;2334;48.710;9.622;2023-05-07T06:24:28;15.30;99.90
4643;DHT22;2334;48.710;9.622;2023-05-07T06:26:55;15.50;99.90
4643;DHT22;2334;48.710;9.622;2023-05-07T06:29:23;15.70;99.90
4643;DHT22;2334;48.710;9.622;2023-05-07T06:31:52;15.90;99.90
4643;DHT22;2334;48.710;9.622;2023-05-07T06:34:19;16.10;99.90
4643;DHT22;2334;48.710;9.622;2023-05-07T06:36:46;16.20;99.90
4643;DHT22;2334;48.710;9.622;2023-05-07T06:39:13;16.40;99.90
4643;DHT22;2334;48.710;9.622;2023-05-07T06:41:40;16.60;99.90
4643;DHT22;2334;48.710;9.622;2023-05-07T06:44:07;16.70;99.90
4643;DHT22;2334;48.710;9.622;2023-05-07T06:46:34;16.90;99.90
4643;DHT22;2334;48.710;9.622;2023-05-07T06:49:02;17.10;99.90
4643;DHT22;2334;48.710;9.622;2023-05-07T06:51:29;17.30;99.90
4643;DHT22;2334;48.710;9.622;2023-05-07T06:53:55;17.50;99.90
4643;DHT22;2334;48.710;9.622;2023-05-07T06:56:22;17.70;99.90
4643;DHT22;2334;48.710;9.622;2023-05-07T06:58:50;17.80;99.90
4643;DHT22;2334;48.710;9.622;2023-05-07T07:01:17;17.80;99.90
4643;DHT22;2334;48.710;9.622;2023-05-07T07:03:44;17.90;99.90
4643;DHT22;2334;48.710;9.622;2023-05-07T07:06:12;18.00;99.90
4643;DHT22;2334;48.710;9.622;2023-05-07T07:08:39;18.10;99.90
4643;DHT22;2334;48.710;9.622;2023-05-07T07:11:06;18.10;99.90
4643;DHT22;2334;48.710;9.622;2023-05-07T07:13:33;18.20;99.90
4643;DHT22;2334;48.710;9.622;2023-05-07T07:16:00;18.30;99.90
4643;DHT22;2334;48.710;9.622;2023-05-07T07:18:27;18.40;99.90
4643;DHT22;2334;48.710;9.622;2023-05-07T07:20:54;18.40;99.90
4643;DHT22;2334;48.710;9.622;2023-05-07T07:23:22;18.40;99.90
4643;DHT22;2334;48.710;9.622;2023-05-07T07:25:49;18.30;99.90
4643;DHT22;2334;48.710;9.622;2023-05-07T07:28:16;18.50;99.90
4643;DHT22;2334;48.710;9.622;2023-05-07T07:30:43;18.60;99.90
4643;DHT22;2334;48.710;9.622;2023-05-07T07:33:10;18.90;99.90
4643;DHT22;2334;48.710;9.622;2023-05-07T07:35:41;19.20;99.90
4643;DHT22;2334;48.710;9.622;2023-05-07T07:38:08;19.40;99.90
4643;DHT22;2334;48.710;9.622;2023-05-07T07:40:37;19.70;99.90
4643;DHT22;2334;48.710;9.622;2023-05-07T07:43:03;19.90;99.90
4643;DHT22;2334;48.710;9.622;2023-05-07T07:45:31;20.00;99.90
4643;DHT22;2334;48.710;9.622;2023-05-07T07:47:58;20.00;99.90
4643;DHT22;2334;48.710;9.622;2023-05-07T07:50:25;20.30;99.90
4643;DHT22;2334;48.710;9.622;2023-05-07T07:52:52;20.50;99.90
4643;DHT22;2334;48.710;9.622;2023-05-07T07:55:19;20.70;99.90
4643;DHT22;2334;48.710;9.622;2023-05-07T07:57:50;20.90;99.90
4643;DHT22;2334;48.710;9.622;2023-05-07T08:00:17;21.10;99.90
4643;DHT22;2334;48.710;9.622;2023-05-07T08:02:44;21.40;99.90
4643;DHT22;2334;48.710;9.622;2023-05-07T08:05:11;21.60;99.90
4643;DHT22;2334;48.710;9.622;2023-05-07T08:07:37;21.70;99.90
4643;DHT22;2334;48.710;9.622;2023-05-07T08:10:05;21.70;99.90
4643;DHT22;2334;48.710;9.622;2023-05-07T08:12:32;21.70;99.90
4643;DHT22;2334;48.710;9.622;2023-05-07T08:15:00;21.70;99.90
4643;DHT22;2334;48.710;9.622;2023-05-07T08:17:27;21.50;99.90
4643;DHT22;2334;48.710;9.622;2023-05-07T08:19:54;21.80;99.90
4643;DHT22;2334;48.710;9.622;2023-05-07T08:22:21;21.70;99.90
4643;DHT22;2334;48.710;9.622;2023-05-07T08:24:48;21.90;99.90
4643;DHT22;2334;48.710;9.622;2023-05-07T08:27:15;22.10;99.90
4643;DHT22;2334;48.710;9.622;2023-05-07T08:29:42;22.10;99.90
4643;DHT22;2334;48.710;9.622;2023-05-07T08:32:16;22.10;99.90
4643;DHT22;2334;48.710;9.622;2023-05-07T08:34:43;22.20;99.90
4643;DHT22;2334;48.710;9.622;2023-05-07T08:37:10;22.40;99.90
4643;DHT22;2334;48.710;9.622;2023-05-07T08:39:37;22.50;99.90
4643;DHT22;2334;48.710;9.622;2023-05-07T08:42:04;22.50;99.90
4643;DHT22;2334;48.710;9.622;2023-05-07T08:44:33;22.40;99.90
4643;DHT22;2334;48.710;9.622;2023-05-07T08:47:01;22.50;99.90
4643;DHT22;2334;48.710;9.622;2023-05-07T08:49:29;22.60;99.90
4643;DHT22;2334;48.710;9.622;2023-05-07T08:51:57;22.70;99.90
4643;DHT22;2334;48.710;9.622;2023-05-07T08:54:25;22.80;99.90
4643;DHT22;2334;48.710;9.622;2023-05-07T08:56:52;23.30;99.90
4643;DHT22;2334;48.710;9.622;2023-05-07T08:59:19;23.40;99.90
4643;DHT22;2334;48.710;9.622;2023-05-07T09:01:46;23.40;99.90
4643;DHT22;2334;48.710;9.622;2023-05-07T09:04:13;23.80;99.90
4643;DHT22;2334;48.710;9.622;2023-05-07T09:06:41;23.90;99.90
4643;DHT22;2334;48.710;9.622;2023-05-07T09:09:08;23.70;99.90
4643;DHT22;2334;48.710;9.622;2023-05-07T09:11:35;23.70;99.90
4643;DHT22;2334;48.710;9.622;2023-05-07T09:14:02;23.80;99.90
4643;DHT22;2334;48.710;9.622;2023-05-07T09:16:30;23.80;99.90
4643;DHT22;2334;48.710;9.622;2023-05-07T09:18:59;23.40;99.90
4643;DHT22;2334;48.710;9.622;2023-05-07T09:21:26;23.40;99.90
4643;DHT22;2334;48.710;9.622;2023-05-07T09:23:55;23.40;99.90
4643;DHT22;2334;48.710;9.622;2023-05-07T09:26:22;23.90;99.90
4643;DHT22;2334;48.710;9.622;2023-05-07T09:28:49;24.00;99.90
4643;DHT22;2334;48.710;9.622;2023-05-07T09:31:16;24.10;99.90
4643;DHT22;2334;48.710;9.622;2023-05-07T09:33:43;24.20;99.90
4643;DHT22;2334;48.710;9.622;2023-05-07T09:36:11;24.00;99.90
4643;DHT22;2334;48.710;9.622;2023-05-07T09:38:38;24.20;99.90
4643;DHT22;2334;48.710;9.622;2023-05-07T09:41:07;24.40;99.90
4643;DHT22;2334;48.710;9.622;2023-05-07T09:43:35;24.30;99.90
4643;DHT22;2334;48.710;9.622;2023-05-07T09:46:05;24.40;99.90
4643;DHT22;2334;48.710;9.622;2023-05-07T09:48:36;24.60;99.90
4643;DHT22;2334;48.710;9.622;2023-05-07T09:51:08;24.40;99.90
4643;DHT22;2334;48.710;9.622;2023-05-07T09:53:36;24.40;99.90
4643;DHT22;2334;48.710;9.622;2023-05-07T09:56:06;24.40;99.90
4643;DHT22;2334;48.710;9.622;2023-05-07T09:58:36;24.60;99.90
4643;DHT22;2334;48.710;9.622;2023-05-07T10:01:03;24.40;99.90
4643;DHT22;2334;48.710;9.622;2023-05-07T10:03:31;25.00;99.90
4643;DHT22;2334;48.710;9.622;2023-05-07T10:06:00;24.70;99.90
4643;DHT22;2334;48.710;9.622;2023-05-07T10:08:28;25.00;99.90
4643;DHT22;2334;48.710;9.622;2023-05-07T10:10:57;24.90;99.90
4643;DHT22;2334;48.710;9.622;2023-05-07T10:13:25;25.10;99.90
4643;DHT22;2334;48.710;9.622;2023-05-07T10:15:52;24.70;99.90
4643;DHT22;2334;48.710;9.622;2023-05-07T10:18:20;24.90;99.90
4643;DHT22;2334;48.710;9.622;2023-05-07T10:20:51;25.00;99.90
4643;DHT22;2334;48.710;9.622;2023-05-07T10:23:22;25.20;99.90
4643;DHT22;2334;48.710;9.622;2023-05-07T10:25:49;25.20;99.90
4643;DHT22;2334;48.710;9.622;2023-05-07T10:28:18;25.40;99.90
4643;DHT22;2334;48.710;9.622;2023-05-07T10:30:59;24.80;99.90
4643;DHT22;2334;48.710;9.622;2023-05-07T10:33:28;25.40;99.90
4643;DHT22;2334;48.710;9.622;2023-05-07T10:35:58;25.50;99.90
4643;DHT22;2334;48.710;9.622;2023-05-07T10:38:27;25.30;99.90
4643;DHT22;2334;48.710;9.622;2023-05-07T10:40:54;25.50;99.90
4643;DHT22;2334;48.710;9.622;2023-05-07T10:43:22;25.90;99.90
4643;DHT22;2334;48.710;9.622;2023-05-07T10:46:13;26.00;99.90
4643;DHT22;2334;48.710;9.622;2023-05-07T10:49:08;26.30;99.90
4643;DHT22;2334;48.710;9.622;2023-05-07T10:51:36;26.10;99.90
4643;DHT22;2334;48.710;9.622;2023-05-07T10:54:22;26.40;99.90
4643;DHT22;2334;48.710;9.622;2023-05-07T10:56:50;26.70;99.90
4643;DHT22;2334;48.710;9.622;2023-05-07T10:59:34;26.70;99.90
4643;DHT22;2334;48.710;9.622;2023-05-07T11:02:08;26.10;99.90
4643;DHT22;2334;48.710;9.622;2023-05-07T11:04:36;25.60;99.90
4643;DHT22;2334;48.710;9.622;2023-05-07T11:10:00;25.50;99.90
4643;DHT22;2334;48.710;9.622;2023-05-07T11:13:02;25.40;99.90
4643;DHT22;2334;48.710;9.622;2023-05-07T11:15:34;25.90;99.90
4643;DHT22;2334;48.710;9.622;2023-05-07T11:18:03;26.10;99.90
4643;DHT22;2334;48.710;9.622;2023-05-07T11:20:47;26.00;99.90
4643;DHT22;2334;48.710;9.622;2023-05-07T11:23:54;25.80;99.90
4643;DHT22;2334;48.710;9.622;2023-05-07T11:26:22;25.20;99.90
4643;DHT22;2334;48.710;9.622;2023-05-07T11:28:49;25.40;99.90
4643;DHT22;2334;48.710;9.622;2023-05-07T11:31:21;25.30;99.90
4643;DHT22;2334;48.710;9.622;2023-05-07T11:33:50;25.40;99.90
4643;DHT22;2334;48.710;9.622;2023-05-07T11:36:18;25.50;99.90
4643;DHT22;2334;48.710;9.622;2023-05-07T11:38:45;25.70;99.90
4643;DHT22;2334;48.710;9.622;2023-05-07T11:41:12;25.70;99.90
4643;DHT22;2334;48.710;9.622;2023-05-07T11:43:53;26.40;99.90
4643;DHT22;2334;48.710;9.622;2023-05-07T11:46:21;26.20;99.90
4643;DHT22;2334;48.710;9.622;2023-05-07T11:48:50;26.10;99.90
4643;DHT22;2334;48.710;9.622;2023-05-07T11:51:21;26.50;99.90
4643;DHT22;2334;48.710;9.622;2023-05-07T11:53:48;27.10;99.90
4643;DHT22;2334;48.710;9.622;2023-05-07T11:56:17;27.40;99.90
4643;DHT22;2334;48.710;9.622;2023-05-07T11:58:45;27.20;99.90
4643;DHT22;2334;48.710;9.622;2023-05-07T12:01:13;26.60;99.90
4643;DHT22;2334;48.710;9.622;2023-05-07T12:03:41;26.20;99.90
4643;DHT22;2334;48.710;9.622;2023-05-07T12:06:11;26.40;99.90
4643;DHT22;2334;48.710;9.622;2023-05-07T12:08:39;25.80;99.90
4643;DHT22;2334;48.710;9.622;2023-05-07T12:11:11;25.60;99.90
4643;DHT22;2334;48.710;9.622;2023-05-07T12:13:39;25.80;99.90
4643;DHT22;2334;48.710;9.622;2023-05-07T12:16:06;25.80;99.90
4643;DHT22;2334;48.710;9.622;2023-05-07T12:18:35;25.60;99.90
4643;DHT22;2334;48.710;9.622;2023-05-07T12:21:03;25.50;99.90
4643;DHT22;2334;48.710;9.622;2023-05-07T12:23:32;25.70;99.90
4643;DHT22;2334;48.710;9.622;2023-05-07T12:26:00;25.60;99.90
4643;DHT22;2334;48.710;9.622;2023-05-07T12:28:26;25.50;99.90
4643;DHT22;2334;48.710;9.622;2023-05-07T12:30:53;25.40;99.90
4643;DHT22;2334;48.710;9.622;2023-05-07T12:33:24;25.30;99.90
4643;DHT22;2334;48.710;9.622;2023-05-07T12:35:54;25.20;99.90
4643;DHT22;2334;48.710;9.622;2023-05-07T12:38:21;25.10;99.90
4643;DHT22;2334;48.710;9.622;2023-05-07T12:40:52;25.00;99.90
4643;DHT22;2334;48.710;9.622;2023-05-07T12:43:20;25.10;99.90
4643;DHT22;2334;48.710;9.622;2023-05-07T12:45:49;25.00;99.90
4643;DHT22;2334;48.710;9.622;2023-05-07T12:48:17;24.80;99.90
4643;DHT22;2334;48.710;9.622;2023-05-07T12:50:48;24.30;99.90
4643;DHT22;2334;48.710;9.622;2023-05-07T12:53:16;24.30;99.90
4643;DHT22;2334;48.710;9.622;2023-05-07T12:55:43;24.20;99.90
4643;DHT22;2334;48.710;9.622;2023-05-07T12:58:27;24.10;99.90
4643;DHT22;2334;48.710;9.622;2023-05-07T13:00:55;24.00;99.90
4643;DHT22;2334;48.710;9.622;2023-05-07T13:03:28;24.00;99.90
4643;DHT22;2334;48.710;9.622;2023-05-07T13:05:57;23.80;99.90
4643;DHT22;2334;48.710;9.622;2023-05-07T13:08:25;23.70;99.90
4643;DHT22;2334;48.710;9.622;2023-05-07T13:10:52;23.60;99.90
4643;DHT22;2334;48.710;9.622;2023-05-07T13:13:19;23.50;99.90
4643;DHT22;2334;48.710;9.622;2023-05-07T13:15:48;23.40;99.90
4643;DHT22;2334;48.710;9.622;2023-05-07T13:18:14;23.00;99.90
4643;DHT22;2334;48.710;9.622;2023-05-07T13:20:41;22.70;99.90
4643;DHT22;2334;48.710;9.622;2023-05-07T13:23:08;22.30;99.90
4643;DHT22;2334;48.710;9.622;2023-05-07T13:25:35;22.20;99.90
4643;DHT22;2334;48.710;9.622;2023-05-07T13:28:02;22.20;99.90
4643;DHT22;2334;48.710;9.622;2023-05-07T13:30:30;22.20;99.90
4643;DHT22;2334;48.710;9.622;2023-05-07T13:32:58;22.30;99.90
4643;DHT22;2334;48.710;9.622;2023-05-07T13:35:25;22.30;99.90
4643;DHT22;2334;48.710;9.622;2023-05-07T13:37:52;22.30;99.90
4643;DHT22;2334;48.710;9.622;2023-05-07T13:40:20;22.20;99.90
4643;DHT22;2334;48.710;9.622;2023-05-07T13:42:48;22.20;99.90
4643;DHT22;2334;48.710;9.622;2023-05-07T13:45:16;22.10;99.90
4643;DHT22;2334;48.710;9.622;2023-05-07T13:47:43;21.80;99.90
4643;DHT22;2334;48.710;9.622;2023-05-07T13:50:11;21.40;99.90
4643;DHT22;2334;48.710;9.622;2023-05-07T13:52:41;21.30;99.90
4643;DHT22;2334;48.710;9.622;2023-05-07T13:55:09;21.40;99.90
4643;DHT22;2334;48.710;9.622;2023-05-07T13:57:36;21.30;99.90
4643;DHT22;2334;48.710;9.622;2023-05-07T14:00:04;21.20;99.90
4643;DHT22;2334;48.710;9.622;2023-05-07T14:02:32;21.10;99.90
4643;DHT22;2334;48.710;9.622;2023-05-07T14:04:58;21.10;99.90
4643;DHT22;2334;48.710;9.622;2023-05-07T14:07:27;21.20;99.90
4643;DHT22;2334;48.710;9.622;2023-05-07T14:09:54;21.10;99.90
4643;DHT22;2334;48.710;9.622;2023-05-07T14:12:21;21.00;99.90
4643;DHT22;2334;48.710;9.622;2023-05-07T14:14:48;20.80;99.90
4643;DHT22;2334;48.710;9.622;2023-05-07T14:17:15;20.70;99.90
4643;DHT22;2334;48.710;9.622;2023-05-07T14:19:42;20.60;99.90
4643;DHT22;2334;48.710;9.622;2023-05-07T14:22:09;20.50;99.90
4643;DHT22;2334;48.710;9.622;2023-05-07T14:24:37;20.40;99.90
4643;DHT22;2334;48.710;9.622;2023-05-07T14:27:05;19.90;99.90
4643;DHT22;2334;48.710;9.622;2023-05-07T14:29:32;19.70;99.90
4643;DHT22;2334;48.710;9.622;2023-05-07T14:32:01;19.50;99.90
4643;DHT22;2334;48.710;9.622;2023-05-07T14:34:28;19.30;99.90
4643;DHT22;2334;48.710;9.622;2023-05-07T14:36:55;18.80;99.90
4643;DHT22;2334;48.710;9.622;2023-05-07T14:39:22;18.70;99.90
4643;DHT22;2334;48.710;9.622;2023-05-07T14:41:50;18.50;99.90
4643;DHT22;2334;48.710;9.622;2023-05-07T14:44:17;18.20;99.90
4643;DHT22;2334;48.710;9.622;2023-05-07T14:46:44;18.00;99.90
4643;DHT22;2334;48.710;9.622;2023-05-07T14:49:11;17.70;99.90
4643;DHT22;2334;48.710;9.622;2023-05-07T14:51:42;17.60;99.90
4643;DHT22;2334;48.710;9.622;2023-05-07T14:54:09;17.60;99.90
4643;DHT22;2334;48.710;9.622;2023-05-07T14:56:37;17.60;99.90
4643;DHT22;2334;48.710;9.622;2023-05-07T14:59:05;17.70;99.90
4643;DHT22;2334;48.710;9.622;2023-05-07T15:01:32;17.60;99.90
4643;DHT22;2334;48.710;9.622;2023-05-07T15:04:00;17.50;99.90
4643;DHT22;2334;48.710;9.622;2023-05-07T15:06:27;17.20;99.90
4643;DHT22;2334;48.710;9.622;2023-05-07T15:08:54;17.10;99.90
4643;DHT22;2334;48.710;9.622;2023-05-07T15:11:22;17.10;99.90
4643;DHT22;2334;48.710;9.622;2023-05-07T15:13:49;17.10;99.90
4643;DHT22;2334;48.710;9.622;2023-05-07T15:16:17;17.00;99.90
4643;DHT22;2334;48.710;9.622;2023-05-07T15:18:44;16.90;99.90
4643;DHT22;2334;48.710;9.622;2023-05-07T15:21:11;16.80;99.90
4643;DHT22;2334;48.710;9.622;2023-05-07T15:23:38;16.70;99.90
4643;DHT22;2334;48.710;9.622;2023-05-07T15:26:06;16.70;99.90
4643;DHT22;2334;48.710;9.622;2023-05-07T15:28:34;16.60;99.90
4643;DHT22;2334;48.710;9.622;2023-05-07T15:31:01;16.40;99.90
4643;DHT22;2334;48.710;9.622;2023-05-07T15:33:29;16.40;99.90
4643;DHT22;2334;48.710;9.622;2023-05-07T15:35:56;16.20;99.90
4643;DHT22;2334;48.710;9.622;2023-05-07T15:38:24;16.10;99.90
4643;DHT22;2334;48.710;9.622;2023-05-07T15:40:52;16.20;99.90
4643;DHT22;2334;48.710;9.622;2023-05-07T15:43:20;16.40;99.90
4643;DHT22;2334;48.710;9.622;2023-05-07T15:45:47;16.40;99.90
4643;DHT22;2334;48.710;9.622;2023-05-07T15:48:14;16.50;99.90
4643;DHT22;2334;48.710;9.622;2023-05-07T15:50:42;16.50;99.90
4643;DHT22;2334;48.710;9.622;2023-05-07T15:53:09;16.60;99.90
4643;DHT22;2334;48.710;9.622;2023-05-07T15:55:39;16.70;99.90
4643;DHT22;2334;48.710;9.622;2023-05-07T15:58:07;16.80;99.90
4643;DHT22;2334;48.710;9.622;2023-05-07T16:00:34;16.80;99.90
4643;DHT22;2334;48.710;9.622;2023-05-07T16:03:01;16.70;99.90
4643;DHT22;2334;48.710;9.622;2023-05-07T16:05:28;16.70;99.90
4643;DHT22;2334;48.710;9.622;2023-05-07T16:07:57;16.60;99.90
4643;DHT22;2334;48.710;9.622;2023-05-07T16:10:24;16.70;99.90